sensor_id;sensor_type;location;lat;lon;timestamp;pressure;altitude;pressure_sealevel;temperature;humidity
3960;BME280;1994;48.640;8.894;2023-04-04T00:00:38;96843.28;;;2.29;64.47
3960;BME280;1994;48.640;8.894;2023-04-04T00:03:04;96836.59;;;2.12;64.34
3960;BME280;1994;48.640;8.894;2023-04-04T00:05:30;96835.63;;;2.21;64.50
3960;BME280;1994;48.640;8.894;2023-04-04T00:07:56;96838.03;;;2.22;65.12
3960;BME280;1994;48.640;8.894;2023-04-04T00:10:21;96829.91;;;2.11;64.73
3960;BME280;1994;48.640;8.894;2023-04-04T00:12:47;96831.97;;;2.07;65.34
3960;BME280;1994;48.640;8.894;2023-04-04T00:15:13;96830.91;;;2.02;65.07
3960;BME280;1994;48.640;8.894;2023-04-04T00:17:39;96829.94;;;2.03;65.72
3960;BME280;1994;48.640;8.894;2023-04-04T00:20:05;96827.84;;;2.06;65.37
3960;BME280;1994;48.640;8.894;2023-04-04T00:22:31;96822.56;;;2.00;65.40
3960;BME280;1994;48.640;8.894;2023-04-04T00:24:57;96824.16;;;2.01;65.52
3960;BME280;1994;48.640;8.894;2023-04-04T00:27:23;96824.50;;;1.98;66.29
3960;BME280;1994;48.640;8.894;2023-04-04T00:29:49;96821.03;;;1.91;65.42
3960;BME280;1994;48.640;8.894;2023-04-04T00:32:15;96814.59;;;1.95;65.44
3960;BME280;1994;48.640;8.894;2023-04-04T00:34:41;96810.78;;;1.99;65.10
3960;BME280;1994;48.640;8.894;2023-04-04T00:37:07;96808.84;;;2.01;64.69
3960;BME280;1994;48.640;8.894;2023-04-04T00:39:36;96813.31;;;1.99;64.13
3960;BME280;1994;48.640;8.894;2023-04-04T00:42:02;96813.00;;;1.94;64.41
3960;BME280;1994;48.640;8.894;2023-04-04T00:44:30;96814.59;;;1.95;64.87
3960;BME280;1994;48.640;8.894;2023-04-04T00:46:56;96806.03;;;1.80;64.48
3960;BME280;1994;48.640;8.894;2023-04-04T00:49:22;96809.22;;;1.82;63.80
3960;BME280;1994;48.640;8.894;2023-04-04T00:51:48;96807.28;;;1.84;63.93
3960;BME280;1994;48.640;8.894;2023-04-04T00:54:13;96801.88;;;1.87;64.27
3960;BME280;1994;48.640;8.894;2023-04-04T00:56:39;96799.97;;;1.81;64.24
3960;BME280;1994;48.640;8.894;2023-04-04T00:59:05;96802.53;;;1.81;64.51
3960;BME280;1994;48.640;8.894;2023-04-04T01:01:32;96802.53;;;1.81;64.29
3960;BME280;1994;48.640;8.894;2023-04-04T01:03:58;96799.00;;;1.82;64.09
3960;BME280;1994;48.640;8.894;2023-04-04T01:06:24;96799.00;;;1.82;64.27
3960;BME280;1994;48.640;8.894;2023-04-04T01:08:51;96784.34;;;1.76;64.69
3960;BME280;1994;48.640;8.894;2023-04-04T01:11:18;96789.59;;;1.82;64.51
3960;BME280;1994;48.640;8.894;2023-04-04T01:13:44;96787.84;;;1.75;64.61
3960;BME280;1994;48.640;8.894;2023-04-04T01:16:09;96789.75;;;1.73;64.94
3960;BME280;1994;48.640;8.894;2023-04-04T01:18:36;96790.22;;;1.76;64.83
3960;BME280;1994;48.640;8.894;2023-04-04T01:21:09;96783.88;;;1.72;65.06
3960;BME280;1994;48.640;8.894;2023-04-04T01:26:16;96780.84;;;1.61;64.66
3960;BME280;1994;48.640;8.894;2023-04-04T01:28:42;96778.91;;;1.63;64.86
3960;BME280;1994;48.640;8.894;2023-04-04T01:31:11;96776.84;;;1.58;65.39
3960;BME280;1994;48.640;8.894;2023-04-04T01:33:44;96781.50;;;1.55;64.79
3960;BME280;1994;48.640;8.894;2023-04-04T01:36:43;96783.41;;;1.53;64.76
3960;BME280;1994;48.640;8.894;2023-04-04T01:39:28;96782.44;;;1.46;64.83
3960;BME280;1994;48.640;8.894;2023-04-04T01:41:58;96780.38;;;1.49;65.35
3960;BME280;1994;48.640;8.894;2023-04-04T01:44:25;96781.81;;;1.36;64.66
3960;BME280;1994;48.640;8.894;2023-04-04T01:46:54;96783.41;;;1.45;64.98
3960;BME280;1994;48.640;8.894;2023-04-04T01:49:21;96781.81;;;1.36;64.97
3960;BME280;1994;48.640;8.894;2023-04-04T01:51:51;96783.72;;;1.50;65.22
3960;BME280;1994;48.640;8.894;2023-04-04T01:54:17;96781.19;;;1.50;65.04
3960;BME280;1994;48.640;8.894;2023-04-04T01:56:44;96784.69;;;1.41;64.96
3960;BME280;1994;48.640;8.894;2023-04-04T01:59:11;96785.31;;;1.35;65.28
3960;BME280;1994;48.640;8.894;2023-04-04T02:01:36;96773.22;;;1.37;65.29
3960;BME280;1994;48.640;8.894;2023-04-04T02:04:03;96774.31;;;1.26;65.66
3960;BME280;1994;48.640;8.894;2023-04-04T02:06:29;96777.03;;;1.17;65.54
3960;BME280;1994;48.640;8.894;2023-04-04T02:08:55;96779.91;;;1.22;64.85
3960;BME280;1994;48.640;8.894;2023-04-04T02:11:21;96782.31;;;1.23;65.66
3960;BME280;1994;48.640;8.894;2023-04-04T02:13:48;96784.69;;;1.25;65.74
3960;BME280;1994;48.640;8.894;2023-04-04T02:16:14;96787.09;;;1.18;65.19
3960;BME280;1994;48.640;8.894;2023-04-04T02:18:41;96790.91;;;1.22;65.40
3960;BME280;1994;48.640;8.894;2023-04-04T02:21:07;96784.69;;;1.25;65.17
3960;BME280;1994;48.640;8.894;2023-04-04T02:23:33;96780.88;;;1.29;64.80
3960;BME280;1994;48.640;8.894;2023-04-04T02:25:58;96787.56;;;1.22;64.81
3960;BME280;1994;48.640;8.894;2023-04-04T02:28:27;96780.88;;;1.21;64.49
3960;BME280;1994;48.640;8.894;2023-04-04T02:30:52;96778.31;;;1.21;64.91
3960;BME280;1994;48.640;8.894;2023-04-04T02:33:18;96778.31;;;1.21;64.71
3960;BME280;1994;48.640;8.894;2023-04-04T02:35:47;96781.03;;;1.19;64.31
3960;BME280;1994;48.640;8.894;2023-04-04T02:38:13;96777.34;;;1.14;64.68
3960;BME280;1994;48.640;8.894;2023-04-04T02:40:38;96778.47;;;1.11;64.45
3960;BME280;1994;48.640;8.894;2023-04-04T02:43:06;96781.34;;;1.16;64.40
3960;BME280;1994;48.640;8.894;2023-04-04T02:45:32;96770.34;;;1.16;64.77
3960;BME280;1994;48.640;8.894;2023-04-04T02:47:59;96774.16;;;1.12;64.65
3960;BME280;1994;48.640;8.894;2023-04-04T02:50:25;96780.09;;;1.12;65.51
3960;BME280;1994;48.640;8.894;2023-04-04T02:52:50;96768.75;;;0.99;64.87
3960;BME280;1994;48.640;8.894;2023-04-04T02:55:18;96768.59;;;0.92;65.42
3960;BME280;1994;48.640;8.894;2023-04-04T02:57:50;96769.69;;;0.90;65.98
3960;BME280;1994;48.640;8.894;2023-04-04T03:00:17;96768.75;;;0.83;65.96
3960;BME280;1994;48.640;8.894;2023-04-04T03:02:43;96770.00;;;0.87;66.17
3960;BME280;1994;48.640;8.894;2023-04-04T03:05:10;96766.03;;;0.84;66.47
3960;BME280;1994;48.640;8.894;2023-04-04T03:07:36;96768.09;;;0.89;66.84
3960;BME280;1994;48.640;8.894;2023-04-04T03:10:03;96765.84;;;0.86;66.59
3960;BME280;1994;48.640;8.894;2023-04-04T03:12:29;96765.06;;;0.85;66.73
3960;BME280;1994;48.640;8.894;2023-04-04T03:14:55;96762.97;;;0.73;67.20
3960;BME280;1994;48.640;8.894;2023-04-04T03:17:21;96755.34;;;0.81;67.17
3960;BME280;1994;48.640;8.894;2023-04-04T03:19:47;96761.72;;;0.85;67.11
3960;BME280;1994;48.640;8.894;2023-04-04T03:22:13;96752.63;;;0.82;67.06
3960;BME280;1994;48.640;8.894;2023-04-04T03:24:39;96758.84;;;0.80;67.33
3960;BME280;1994;48.640;8.894;2023-04-04T03:27:04;96759.94;;;0.77;67.75
3960;BME280;1994;48.640;8.894;2023-04-04T03:29:30;96763.94;;;0.80;67.45
3960;BME280;1994;48.640;8.894;2023-04-04T03:31:56;96754.22;;;0.75;68.02
3960;BME280;1994;48.640;8.894;2023-04-04T03:34:22;96755.66;;;0.78;67.89
3960;BME280;1994;48.640;8.894;2023-04-04T03:36:49;96755.34;;;0.81;67.90
3960;BME280;1994;48.640;8.894;2023-04-04T03:39:16;96754.06;;;0.77;67.96
3960;BME280;1994;48.640;8.894;2023-04-04T03:41:42;96754.38;;;0.74;67.75
3960;BME280;1994;48.640;8.894;2023-04-04T03:44:07;96752.78;;;0.73;67.80
3960;BME280;1994;48.640;8.894;2023-04-04T03:46:33;96757.22;;;0.63;68.18
3960;BME280;1994;48.640;8.894;2023-04-04T03:48:59;96760.41;;;0.65;68.05
3960;BME280;1994;48.640;8.894;2023-04-04T03:51:25;96760.09;;;0.68;67.79
3960;BME280;1994;48.640;8.894;2023-04-04T03:53:55;96759.47;;;0.66;68.16
3960;BME280;1994;48.640;8.894;2023-04-04T03:56:21;96757.84;;;0.57;68.45
3960;BME280;1994;48.640;8.894;2023-04-04T03:58:46;96757.22;;;0.55;68.35
3960;BME280;1994;48.640;8.894;2023-04-04T04:01:12;96764.06;;;0.54;68.14
3960;BME280;1994;48.640;8.894;2023-04-04T04:03:38;96758.78;;;0.48;68.84
3960;BME280;1994;48.640;8.894;2023-04-04T04:06:04;96758.00;;;0.47;68.93
3960;BME280;1994;48.640;8.894;2023-04-04T04:08:30;96757.19;;;0.47;69.26
3960;BME280;1994;48.640;8.894;2023-04-04T04:11:02;96754.63;;;0.39;69.42
3960;BME280;1994;48.640;8.894;2023-04-04T04:13:27;96764.00;;;0.38;69.72
3960;BME280;1994;48.640;8.894;2023-04-04T04:15:55;96762.63;;;0.44;69.66
3960;BME280;1994;48.640;8.894;2023-04-04T04:18:20;96762.63;;;0.44;69.63
3960;BME280;1994;48.640;8.894;2023-04-04T04:20:46;96768.31;;;0.38;69.78
3960;BME280;1994;48.640;8.894;2023-04-04T04:23:12;96763.53;;;0.35;69.64
3960;BME280;1994;48.640;8.894;2023-04-04T04:25:38;96758.91;;;0.38;69.39
3960;BME280;1994;48.640;8.894;2023-04-04T04:28:04;96763.81;;;0.32;69.73
3960;BME280;1994;48.640;8.894;2023-04-04T04:30:30;96756.03;;;0.33;69.78
3960;BME280;1994;48.640;8.894;2023-04-04T04:32:56;96764.34;;;0.35;69.89
3960;BME280;1994;48.640;8.894;2023-04-04T04:35:22;96762.44;;;0.37;69.21
3960;BME280;1994;48.640;8.894;2023-04-04T04:37:47;96760.66;;;0.30;69.48
3960;BME280;1994;48.640;8.894;2023-04-04T04:40:13;96752.03;;;0.31;69.29
3960;BME280;1994;48.640;8.894;2023-04-04T04:42:44;96766.72;;;0.37;69.48
3960;BME280;1994;48.640;8.894;2023-04-04T04:45:13;96760.03;;;0.36;69.22
3960;BME280;1994;48.640;8.894;2023-04-04T04:47:38;96768.91;;;0.32;69.54
3960;BME280;1994;48.640;8.894;2023-04-04T04:50:05;96766.03;;;0.19;69.52
3960;BME280;1994;48.640;8.894;2023-04-04T04:52:36;96765.38;;;0.17;69.87
3960;BME280;1994;48.640;8.894;2023-04-04T04:55:02;96762.50;;;0.12;70.09
3960;BME280;1994;48.640;8.894;2023-04-04T04:57:28;96774.56;;;0.02;70.46
3960;BME280;1994;48.640;8.894;2023-04-04T04:59:54;96775.38;;;0.10;69.81
3960;BME280;1994;48.640;8.894;2023-04-04T05:02:20;96778.75;;;0.11;69.76
3960;BME280;1994;48.640;8.894;2023-04-04T05:04:46;96777.38;;;-0.01;69.92
3960;BME280;1994;48.640;8.894;2023-04-04T05:07:11;96778.06;;;0.01;70.27
3960;BME280;1994;48.640;8.894;2023-04-04T05:09:37;96781.88;;;0.05;70.16
3960;BME280;1994;48.640;8.894;2023-04-04T05:12:04;96779.00;;;0.00;70.88
3960;BME280;1994;48.640;8.894;2023-04-04T05:14:32;96777.88;;;0.02;72.26
3960;BME280;1994;48.640;8.894;2023-04-04T05:16:58;96775.84;;;0.06;71.86
3960;BME280;1994;48.640;8.894;2023-04-04T05:19:24;96776.47;;;0.08;71.50
3960;BME280;1994;48.640;8.894;2023-04-04T05:21:50;96773.38;;;0.22;70.62
3960;BME280;1994;48.640;8.894;2023-04-04T05:24:16;96783.72;;;0.20;70.75
3960;BME280;1994;48.640;8.894;2023-04-04T05:26:42;96775.94;;;0.30;70.81
3960;BME280;1994;48.640;8.894;2023-04-04T05:29:08;96780.41;;;0.36;70.54
3960;BME280;1994;48.640;8.894;2023-04-04T05:31:33;96783.78;;;0.44;70.10
3960;BME280;1994;48.640;8.894;2023-04-04T05:33:59;96778.22;;;0.49;70.14
3960;BME280;1994;48.640;8.894;2023-04-04T05:36:35;96784.63;;;0.61;69.99
3960;BME280;1994;48.640;8.894;2023-04-04T05:39:02;96780.78;;;0.65;69.59
3960;BME280;1994;48.640;8.894;2023-04-04T05:41:30;96783.69;;;0.70;70.05
3960;BME280;1994;48.640;8.894;2023-04-04T05:43:56;96782.56;;;0.72;69.21
3960;BME280;1994;48.640;8.894;2023-04-04T05:46:22;96781.41;;;0.59;68.71
3960;BME280;1994;48.640;8.894;2023-04-04T05:48:48;96793.34;;;0.50;69.47
3960;BME280;1994;48.640;8.894;2023-04-04T05:51:17;96786.19;;;0.46;69.85
3960;BME280;1994;48.640;8.894;2023-04-04T05:53:43;96794.78;;;0.45;70.19
3960;BME280;1994;48.640;8.894;2023-04-04T05:56:12;96795.06;;;0.42;70.73
3960;BME280;1994;48.640;8.894;2023-04-04T05:58:38;96804.50;;;0.49;70.58
3960;BME280;1994;48.640;8.894;2023-04-04T06:01:07;96810.09;;;0.53;70.72
3960;BME280;1994;48.640;8.894;2023-04-04T06:03:36;96805.03;;;0.69;69.77
3960;BME280;1994;48.640;8.894;2023-04-04T06:06:02;96801.19;;;0.65;69.34
3960;BME280;1994;48.640;8.894;2023-04-04T06:08:30;96800.00;;;0.93;69.37
3960;BME280;1994;48.640;8.894;2023-04-04T06:10:56;96798.56;;;1.14;68.27
3960;BME280;1994;48.640;8.894;2023-04-04T06:13:22;96800.97;;;1.32;67.42
3960;BME280;1994;48.640;8.894;2023-04-04T06:15:47;96803.50;;;1.40;66.90
3960;BME280;1994;48.640;8.894;2023-04-04T06:18:13;96801.28;;;1.53;65.81
3960;BME280;1994;48.640;8.894;2023-04-04T06:20:42;96801.25;;;1.61;65.92
3960;BME280;1994;48.640;8.894;2023-04-04T06:23:07;96797.28;;;1.58;65.20
3960;BME280;1994;48.640;8.894;2023-04-04T06:25:35;96793.13;;;1.49;64.82
3960;BME280;1994;48.640;8.894;2023-04-04T06:28:02;96790.06;;;1.86;69.60
3960;BME280;1994;48.640;8.894;2023-04-04T06:30:28;96793.50;;;2.09;68.56
3960;BME280;1994;48.640;8.894;2023-04-04T06:32:55;96788.09;;;2.04;63.90
3960;BME280;1994;48.640;8.894;2023-04-04T06:35:24;96792.78;;;2.23;62.56
3960;BME280;1994;48.640;8.894;2023-04-04T06:37:54;96796.78;;;2.25;61.41
3960;BME280;1994;48.640;8.894;2023-04-04T06:40:21;96795.28;;;2.47;61.45
3960;BME280;1994;48.640;8.894;2023-04-04T06:42:50;96791.28;;;2.44;59.99
3960;BME280;1994;48.640;8.894;2023-04-04T06:45:28;96791.75;;;2.48;59.55
3960;BME280;1994;48.640;8.894;2023-04-04T06:47:58;96797.91;;;2.61;59.49
3960;BME280;1994;48.640;8.894;2023-04-04T06:50:24;96787.31;;;2.42;59.24
3960;BME280;1994;48.640;8.894;2023-04-04T06:52:50;96792.00;;;2.61;58.95
3960;BME280;1994;48.640;8.894;2023-04-04T06:55:20;96792.00;;;2.61;58.01
3960;BME280;1994;48.640;8.894;2023-04-04T06:57:47;96787.75;;;2.45;57.96
3960;BME280;1994;48.640;8.894;2023-04-04T07:00:13;96784.06;;;2.56;57.92
3960;BME280;1994;48.640;8.894;2023-04-04T07:02:42;96771.44;;;2.77;58.35
3960;BME280;1994;48.640;8.894;2023-04-04T07:05:17;96780.63;;;2.63;57.95
3960;BME280;1994;48.640;8.894;2023-04-04T07:07:44;96775.78;;;2.99;57.73
3960;BME280;1994;48.640;8.894;2023-04-04T07:10:11;96773.47;;;3.12;56.74
3960;BME280;1994;48.640;8.894;2023-04-04T07:12:37;96777.59;;;3.13;55.99
3960;BME280;1994;48.640;8.894;2023-04-04T07:15:06;96772.03;;;2.87;55.36
3960;BME280;1994;48.640;8.894;2023-04-04T07:17:32;96773.16;;;2.84;56.14
3960;BME280;1994;48.640;8.894;2023-04-04T07:20:01;96780.88;;;2.99;55.25
3960;BME280;1994;48.640;8.894;2023-04-04T07:22:27;96786.88;;;3.14;54.77
3960;BME280;1994;48.640;8.894;2023-04-04T07:24:53;96785.56;;;3.18;54.78
3960;BME280;1994;48.640;8.894;2023-04-04T07:27:19;96785.69;;;3.02;54.24
3960;BME280;1994;48.640;8.894;2023-04-04T07:29:45;96794.84;;;3.19;55.10
3960;BME280;1994;48.640;8.894;2023-04-04T07:32:11;96793.28;;;3.10;54.23
3960;BME280;1994;48.640;8.894;2023-04-04T07:34:39;96785.19;;;2.76;54.80
3960;BME280;1994;48.640;8.894;2023-04-04T07:37:05;96789.50;;;3.06;55.82
3960;BME280;1994;48.640;8.894;2023-04-04T07:39:31;96788.69;;;3.28;54.72
3960;BME280;1994;48.640;8.894;2023-04-04T07:41:57;96793.75;;;3.36;54.00
3960;BME280;1994;48.640;8.894;2023-04-04T07:44:23;96797.25;;;3.57;53.44
3960;BME280;1994;48.640;8.894;2023-04-04T07:46:48;96787.22;;;3.48;53.31
3960;BME280;1994;48.640;8.894;2023-04-04T07:49:14;96789.94;;;3.69;54.18
3960;BME280;1994;48.640;8.894;2023-04-04T07:51:40;96789.72;;;3.93;52.91
3960;BME280;1994;48.640;8.894;2023-04-04T07:54:06;96792.53;;;3.98;52.53
3960;BME280;1994;48.640;8.894;2023-04-04T07:56:32;96797.66;;;4.12;52.21
3960;BME280;1994;48.640;8.894;2023-04-04T07:58:57;96798.97;;;4.23;52.84
3960;BME280;1994;48.640;8.894;2023-04-04T08:01:23;96788.28;;;4.34;51.22
3960;BME280;1994;48.640;8.894;2023-04-04T08:03:49;96788.97;;;4.42;51.48
3960;BME280;1994;48.640;8.894;2023-04-04T08:06:17;96783.28;;;4.97;50.70
3960;BME280;1994;48.640;8.894;2023-04-04T08:08:43;96784.13;;;4.33;50.31
3960;BME280;1994;48.640;8.894;2023-04-04T08:11:11;96789.16;;;4.91;50.30
3960;BME280;1994;48.640;8.894;2023-04-04T08:13:38;96782.88;;;5.84;48.80
3960;BME280;1994;48.640;8.894;2023-04-04T08:16:04;96788.22;;;7.30;44.63
3960;BME280;1994;48.640;8.894;2023-04-04T08:18:30;96794.94;;;7.83;43.10
3960;BME280;1994;48.640;8.894;2023-04-04T08:20:57;96794.88;;;6.92;43.85
3960;BME280;1994;48.640;8.894;2023-04-04T08:23:22;96789.78;;;7.57;44.05
3960;BME280;1994;48.640;8.894;2023-04-04T08:25:49;96786.66;;;8.64;41.92
3960;BME280;1994;48.640;8.894;2023-04-04T08:28:14;96790.84;;;9.33;40.25
3960;BME280;1994;48.640;8.894;2023-04-04T08:30:40;96781.22;;;9.47;38.98
3960;BME280;1994;48.640;8.894;2023-04-04T08:33:09;96783.94;;;10.01;38.47
3960;BME280;1994;48.640;8.894;2023-04-04T08:35:35;96787.31;;;10.80;38.43
3960;BME280;1994;48.640;8.894;2023-04-04T08:38:01;96782.94;;;11.51;36.16
3960;BME280;1994;48.640;8.894;2023-04-04T08:40:30;96789.19;;;11.61;36.27
3960;BME280;1994;48.640;8.894;2023-04-04T08:42:58;96781.22;;;11.04;35.28
3960;BME280;1994;48.640;8.894;2023-04-04T08:45:25;96779.72;;;10.96;35.64
3960;BME280;1994;48.640;8.894;2023-04-04T08:47:53;96786.38;;;11.86;36.44
3960;BME280;1994;48.640;8.894;2023-04-04T08:50:20;96774.22;;;12.72;33.76
3960;BME280;1994;48.640;8.894;2023-04-04T08:52:46;96786.72;;;10.96;34.98
3960;BME280;1994;48.640;8.894;2023-04-04T08:55:12;96780.69;;;10.66;35.82
3960;BME280;1994;48.640;8.894;2023-04-04T08:57:41;96783.31;;;11.25;34.50
3960;BME280;1994;48.640;8.894;2023-04-04T09:00:08;96779.91;;;11.13;34.55
3960;BME280;1994;48.640;8.894;2023-04-04T09:05:26;96786.13;;;10.94;34.93
3960;BME280;1994;48.640;8.894;2023-04-04T09:07:52;96797.25;;;12.06;34.06
3960;BME280;1994;48.640;8.894;2023-04-04T09:10:19;96782.84;;;12.49;33.35
3960;BME280;1994;48.640;8.894;2023-04-04T09:12:46;96785.75;;;10.79;34.11
3960;BME280;1994;48.640;8.894;2023-04-04T09:15:13;96792.25;;;11.70;33.42
3960;BME280;1994;48.640;8.894;2023-04-04T09:17:39;96790.00;;;11.32;33.24
3960;BME280;1994;48.640;8.894;2023-04-04T09:20:46;96781.66;;;12.06;33.39
3960;BME280;1994;48.640;8.894;2023-04-04T09:23:15;96787.09;;;10.81;34.23
3960;BME280;1994;48.640;8.894;2023-04-04T09:25:50;96793.03;;;11.00;34.06
3960;BME280;1994;48.640;8.894;2023-04-04T09:28:18;96789.34;;;11.78;32.58
3960;BME280;1994;48.640;8.894;2023-04-04T09:30:47;96780.53;;;12.02;32.27
3960;BME280;1994;48.640;8.894;2023-04-04T09:33:14;96789.81;;;12.21;32.44
3960;BME280;1994;48.640;8.894;2023-04-04T09:35:57;96786.28;;;11.81;33.25
3960;BME280;1994;48.640;8.894;2023-04-04T09:38:25;96786.38;;;11.33;33.30
3960;BME280;1994;48.640;8.894;2023-04-04T09:40:55;96788.25;;;11.15;33.42
3960;BME280;1994;48.640;8.894;2023-04-04T09:43:23;96785.72;;;12.48;33.11
3960;BME280;1994;48.640;8.894;2023-04-04T09:45:49;96792.00;;;12.52;32.97
3960;BME280;1994;48.640;8.894;2023-04-04T09:48:33;96786.53;;;13.77;31.68
3960;BME280;1994;48.640;8.894;2023-04-04T09:51:10;96793.72;;;14.03;30.49
3960;BME280;1994;48.640;8.894;2023-04-04T09:53:37;96793.41;;;13.22;31.22
3960;BME280;1994;48.640;8.894;2023-04-04T09:56:05;96794.09;;;12.27;32.26
3960;BME280;1994;48.640;8.894;2023-04-04T09:58:31;96803.97;;;11.02;33.22
3960;BME280;1994;48.640;8.894;2023-04-04T10:01:03;96809.16;;;9.87;35.43
3960;BME280;1994;48.640;8.894;2023-04-04T10:03:32;96794.66;;;10.65;35.57
3960;BME280;1994;48.640;8.894;2023-04-04T10:06:08;96796.25;;;10.84;34.23
3960;BME280;1994;48.640;8.894;2023-04-04T10:08:40;96792.44;;;11.57;33.16
3960;BME280;1994;48.640;8.894;2023-04-04T10:11:08;96785.47;;;11.69;32.49
3960;BME280;1994;48.640;8.894;2023-04-04T10:13:36;96777.91;;;11.67;32.69
3960;BME280;1994;48.640;8.894;2023-04-04T10:16:05;96781.00;;;11.99;33.93
3960;BME280;1994;48.640;8.894;2023-04-04T10:18:33;96790.19;;;12.64;31.78
3960;BME280;1994;48.640;8.894;2023-04-04T10:21:02;96785.97;;;11.07;32.61
3960;BME280;1994;48.640;8.894;2023-04-04T10:23:28;96781.22;;;12.32;33.00
3960;BME280;1994;48.640;8.894;2023-04-04T10:25:55;96780.53;;;12.02;32.38
3960;BME280;1994;48.640;8.894;2023-04-04T10:28:22;96770.56;;;12.45;33.12
3960;BME280;1994;48.640;8.894;2023-04-04T10:33:45;96772.31;;;14.34;30.65
3960;BME280;1994;48.640;8.894;2023-04-04T10:36:13;96772.81;;;12.53;31.44
3960;BME280;1994;48.640;8.894;2023-04-04T10:38:54;96781.66;;;11.83;33.46
3960;BME280;1994;48.640;8.894;2023-04-04T10:41:25;96766.69;;;12.59;33.06
3960;BME280;1994;48.640;8.894;2023-04-04T10:43:55;96774.88;;;12.28;31.17
3960;BME280;1994;48.640;8.894;2023-04-04T10:46:23;96781.13;;;12.04;32.61
3960;BME280;1994;48.640;8.894;2023-04-04T10:48:59;96768.00;;;11.87;32.33
3960;BME280;1994;48.640;8.894;2023-04-04T10:51:26;96776.91;;;12.03;32.22
3960;BME280;1994;48.640;8.894;2023-04-04T10:53:55;96763.81;;;11.22;32.64
3960;BME280;1994;48.640;8.894;2023-04-04T10:56:22;96768.56;;;10.96;33.28
3960;BME280;1994;48.640;8.894;2023-04-04T10:58:49;96767.00;;;11.77;34.25
3960;BME280;1994;48.640;8.894;2023-04-04T11:01:15;96771.50;;;11.29;32.73
3960;BME280;1994;48.640;8.894;2023-04-04T11:04:23;96759.72;;;12.48;32.83
3960;BME280;1994;48.640;8.894;2023-04-04T11:07:17;96752.63;;;13.11;31.98
3960;BME280;1994;48.640;8.894;2023-04-04T11:09:55;96749.06;;;12.49;32.90
3960;BME280;1994;48.640;8.894;2023-04-04T11:17:50;96741.25;;;12.61;32.64
3960;BME280;1994;48.640;8.894;2023-04-04T11:20:20;96748.16;;;11.93;33.04
3960;BME280;1994;48.640;8.894;2023-04-04T11:23:09;96743.50;;;12.18;32.38
3960;BME280;1994;48.640;8.894;2023-04-04T11:25:49;96746.44;;;11.87;33.42
3960;BME280;1994;48.640;8.894;2023-04-04T11:28:43;96739.44;;;13.01;32.24
3960;BME280;1994;48.640;8.894;2023-04-04T11:42:00;96742.19;;;13.72;31.74
3960;BME280;1994;48.640;8.894;2023-04-04T11:44:32;96740.84;;;13.86;31.23
3960;BME280;1994;48.640;8.894;2023-04-04T11:49:38;96741.38;;;13.88;30.89
3960;BME280;1994;48.640;8.894;2023-04-04T11:52:11;96732.53;;;12.67;31.02
3960;BME280;1994;48.640;8.894;2023-04-04T11:54:39;96728.25;;;12.61;32.56
3960;BME280;1994;48.640;8.894;2023-04-04T11:57:26;96731.41;;;12.63;32.13
3960;BME280;1994;48.640;8.894;2023-04-04T11:59:52;96728.56;;;11.33;33.62
3960;BME280;1994;48.640;8.894;2023-04-04T12:02:25;96724.31;;;11.96;32.94
3960;BME280;1994;48.640;8.894;2023-04-04T12:04:58;96719.97;;;12.36;32.64
3960;BME280;1994;48.640;8.894;2023-04-04T12:07:25;96734.78;;;12.24;33.60
3960;BME280;1994;48.640;8.894;2023-04-04T12:09:51;96725.78;;;12.03;34.37
3960;BME280;1994;48.640;8.894;2023-04-04T12:12:17;96730.75;;;11.59;33.30
3960;BME280;1994;48.640;8.894;2023-04-04T12:14:44;96730.31;;;11.21;33.55
3960;BME280;1994;48.640;8.894;2023-04-04T12:17:10;96722.88;;;11.13;34.09
3960;BME280;1994;48.640;8.894;2023-04-04T12:19:40;96727.00;;;10.73;35.22
3960;BME280;1994;48.640;8.894;2023-04-04T12:22:06;96730.38;;;11.44;34.16
3960;BME280;1994;48.640;8.894;2023-04-04T12:24:35;96718.22;;;12.02;34.23
3960;BME280;1994;48.640;8.894;2023-04-04T12:27:02;96728.00;;;12.23;32.13
3960;BME280;1994;48.640;8.894;2023-04-04T12:29:29;96723.63;;;12.12;32.22
3960;BME280;1994;48.640;8.894;2023-04-04T12:32:04;96715.50;;;12.59;32.75
3960;BME280;1994;48.640;8.894;2023-04-04T12:34:32;96716.63;;;11.55;32.00
3960;BME280;1994;48.640;8.894;2023-04-04T12:37:01;96715.50;;;11.97;32.51
3960;BME280;1994;48.640;8.894;2023-04-04T12:39:28;96712.66;;;11.00;33.57
3960;BME280;1994;48.640;8.894;2023-04-04T12:42:00;96717.31;;;12.08;33.43
3960;BME280;1994;48.640;8.894;2023-04-04T12:44:39;96711.69;;;11.88;33.34
3960;BME280;1994;48.640;8.894;2023-04-04T12:47:08;96701.22;;;12.73;33.06
3960;BME280;1994;48.640;8.894;2023-04-04T12:49:41;96700.38;;;13.29;32.51
3960;BME280;1994;48.640;8.894;2023-04-04T12:52:18;96700.69;;;13.16;31.07
3960;BME280;1994;48.640;8.894;2023-04-04T12:54:48;96701.41;;;13.28;31.67
3960;BME280;1994;48.640;8.894;2023-04-04T12:57:20;96701.75;;;11.85;31.39
3960;BME280;1994;48.640;8.894;2023-04-04T12:59:47;96700.78;;;12.37;32.93
3960;BME280;1994;48.640;8.894;2023-04-04T13:02:18;96693.59;;;13.11;31.16
3960;BME280;1994;48.640;8.894;2023-04-04T13:04:46;96696.78;;;13.30;30.17
3960;BME280;1994;48.640;8.894;2023-04-04T13:07:37;96692.25;;;13.58;29.96
3960;BME280;1994;48.640;8.894;2023-04-04T13:10:12;96688.16;;;12.85;29.94
3960;BME280;1994;48.640;8.894;2023-04-04T13:12:59;96691.53;;;12.97;30.62
3960;BME280;1994;48.640;8.894;2023-04-04T13:15:47;96690.47;;;13.26;29.72
3960;BME280;1994;48.640;8.894;2023-04-04T13:18:21;96685.19;;;13.37;30.39
3960;BME280;1994;48.640;8.894;2023-04-04T13:20:51;96683.25;;;13.82;29.58
3960;BME280;1994;48.640;8.894;2023-04-04T13:23:19;96676.72;;;13.80;29.86
3960;BME280;1994;48.640;8.894;2023-04-04T13:25:45;96674.09;;;14.18;29.06
3960;BME280;1994;48.640;8.894;2023-04-04T13:28:11;96667.53;;;13.39;30.19
3960;BME280;1994;48.640;8.894;2023-04-04T13:30:38;96678.38;;;14.07;29.16
3960;BME280;1994;48.640;8.894;2023-04-04T13:33:08;96674.06;;;13.42;29.55
3960;BME280;1994;48.640;8.894;2023-04-04T13:35:34;96672.63;;;13.18;30.07
3960;BME280;1994;48.640;8.894;2023-04-04T13:38:00;96663.00;;;12.46;30.76
3960;BME280;1994;48.640;8.894;2023-04-04T13:40:26;96663.72;;;12.69;29.87
3960;BME280;1994;48.640;8.894;2023-04-04T13:42:53;96662.59;;;11.75;31.06
3960;BME280;1994;48.640;8.894;2023-04-04T13:45:19;96666.22;;;11.62;31.33
3960;BME280;1994;48.640;8.894;2023-04-04T13:47:44;96655.66;;;10.59;32.38
3960;BME280;1994;48.640;8.894;2023-04-04T13:50:10;96664.69;;;11.09;32.25
3960;BME280;1994;48.640;8.894;2023-04-04T13:52:36;96650.94;;;10.67;32.11
3960;BME280;1994;48.640;8.894;2023-04-04T13:55:05;96656.34;;;11.18;32.91
3960;BME280;1994;48.640;8.894;2023-04-04T13:57:31;96652.09;;;11.24;32.05
3960;BME280;1994;48.640;8.894;2023-04-04T13:59:57;96658.81;;;11.02;31.80
3960;BME280;1994;48.640;8.894;2023-04-04T14:02:24;96654.53;;;10.96;32.32